createdAt,value
2022-10-07T00:00:08.850Z,3.80
2022-10-07T00:03:15.395Z,3.50
2022-10-07T00:05:43.752Z,3.90
2022-10-07T00:08:12.275Z,3.80
2022-10-07T00:10:43.535Z,3.90
2022-10-07T00:13:12.361Z,3.70
2022-10-07T00:15:40.693Z,3.80
2022-10-07T00:18:09.258Z,5.10
2022-10-07T00:20:41.056Z,3.60
2022-10-07T00:23:09.643Z,3.50
2022-10-07T00:25:40.651Z,4.10
2022-10-07T00:28:09.385Z,3.90
2022-10-07T00:30:41.008Z,4.00
2022-10-07T00:33:10.312Z,4.20
2022-10-07T00:35:39.502Z,4.10
2022-10-07T00:38:08.279Z,3.70
2022-10-07T00:40:45.008Z,3.10
2022-10-07T00:43:41.179Z,3.50
2022-10-07T00:46:18.673Z,3.30
2022-10-07T00:48:51.717Z,3.30
2022-10-07T00:51:20.678Z,3.90
2022-10-07T00:53:52.939Z,4.20
2022-10-07T00:56:32.849Z,4.30
2022-10-07T00:59:02.699Z,4.30
2022-10-07T01:01:38.937Z,4.30
2022-10-07T01:04:14.845Z,4.60
2022-10-07T01:07:03.069Z,4.20
2022-10-07T01:09:35.089Z,3.30
2022-10-07T01:12:28.024Z,4.70
2022-10-07T01:15:24.537Z,5.90
2022-10-07T01:18:48.507Z,11.50
2022-10-07T01:21:55.699Z,11.40
2022-10-07T01:24:48.955Z,9.70
2022-10-07T01:27:36.941Z,9.30
2022-10-07T01:30:08.543Z,10.40
2022-10-07T01:32:42.671Z,11.80
2022-10-07T01:35:36.859Z,12.10
2022-10-07T01:38:14.169Z,13.40
2022-10-07T01:41:13.636Z,15.50
2022-10-07T01:44:05.064Z,13.90
2022-10-07T01:46:39.021Z,15.30
2022-10-07T01:49:24.098Z,14.20
2022-10-07T01:52:03.198Z,15.40
2022-10-07T01:54:57.499Z,16.50
2022-10-07T01:57:44.801Z,14.90
2022-10-07T02:00:15.542Z,15.20
2022-10-07T02:03:19.315Z,15.00
2022-10-07T02:05:58.078Z,13.60
2022-10-07T02:08:55.063Z,15.20
2022-10-07T02:11:33.729Z,14.50
2022-10-07T02:14:24.890Z,15.20
2022-10-07T02:17:03.868Z,16.70
2022-10-07T02:19:47.049Z,18.40
2022-10-07T02:22:19.372Z,14.80
2022-10-07T02:24:50.331Z,14.70
2022-10-07T02:27:25.504Z,13.10
2022-10-07T02:30:04.594Z,14.30
2022-10-07T02:32:35.704Z,14.10
2022-10-07T02:35:14.199Z,14.10
2022-10-07T02:37:52.813Z,12.60
2022-10-07T02:40:33.238Z,11.20
2022-10-07T02:43:32.514Z,10.30
2022-10-07T02:46:14.899Z,9.80
2022-10-07T02:51:55.013Z,7.80
2022-10-07T02:54:31.476Z,6.70
2022-10-07T02:57:01.803Z,6.90
2022-10-07T02:59:34.077Z,7.00
2022-10-07T03:02:07.038Z,6.50
2022-10-07T03:07:48.949Z,5.70
2022-10-07T03:10:17.628Z,6.20
2022-10-07T03:12:45.882Z,6.00
2022-10-07T03:15:14.430Z,6.50
2022-10-07T03:17:42.950Z,6.90
2022-10-07T03:20:13.803Z,6.40
2022-10-07T03:25:15.694Z,5.60
2022-10-07T03:27:44.917Z,6.50
2022-10-07T03:30:14.120Z,13.40
2022-10-07T03:32:43.034Z,14.80
2022-10-07T03:35:12.239Z,14.00
2022-10-07T03:37:40.354Z,11.30
2022-10-07T03:40:09.712Z,9.60
2022-10-07T03:42:38.200Z,7.80
2022-10-07T03:45:09.099Z,6.40
2022-10-07T03:47:38.409Z,6.30
2022-10-07T03:50:08.935Z,6.00
2022-10-07T03:52:37.258Z,5.90
2022-10-07T03:55:05.884Z,5.60
2022-10-07T03:57:58.436Z,5.90
2022-10-07T04:00:28.357Z,6.20
2022-10-07T04:02:56.887Z,6.80
2022-10-07T04:05:25.305Z,7.70
2022-10-07T04:07:54.840Z,7.90
2022-10-07T04:10:24.525Z,7.70
2022-10-07T04:12:52.795Z,8.80
2022-10-07T04:15:21.437Z,9.40
2022-10-07T04:17:53.957Z,7.90
2022-10-07T04:20:22.219Z,8.20
2022-10-07T04:22:50.451Z,10.30
2022-10-07T04:25:34.482Z,10.50
2022-10-07T04:28:19.522Z,10.00
2022-10-07T04:30:54.043Z,11.10
2022-10-07T04:33:30.241Z,10.70
2022-10-07T04:36:05.118Z,12.30
2022-10-07T04:38:33.536Z,11.00
2022-10-07T04:41:07.056Z,10.30
2022-10-07T04:43:36.270Z,10.20
2022-10-07T04:46:14.396Z,11.10
2022-10-07T04:48:52.313Z,10.60
2022-10-07T04:51:25.175Z,10.70
2022-10-07T04:53:57.088Z,10.40
2022-10-07T04:56:31.549Z,11.70
2022-10-07T04:59:00.621Z,12.50
2022-10-07T05:01:30.411Z,12.60
2022-10-07T05:03:59.813Z,12.50
2022-10-07T05:06:28.504Z,11.50
2022-10-07T05:08:56.949Z,10.50
2022-10-07T05:11:26.054Z,11.90
2022-10-07T05:14:04.805Z,11.20
2022-10-07T05:16:33.469Z,12.10
2022-10-07T05:19:02.227Z,12.80
2022-10-07T05:21:30.614Z,11.00
2022-10-07T05:23:59.146Z,10.10
2022-10-07T05:26:31.377Z,10.40
2022-10-07T05:29:00.620Z,11.20
2022-10-07T05:31:33.621Z,10.80
2022-10-07T05:34:03.079Z,11.30
2022-10-07T05:36:40.505Z,10.80
2022-10-07T05:39:09.881Z,9.80
2022-10-07T05:42:01.950Z,11.90
2022-10-07T05:44:35.043Z,9.80
2022-10-07T05:47:03.846Z,11.00
2022-10-07T05:49:32.932Z,11.00
2022-10-07T05:52:01.183Z,11.00
2022-10-07T05:54:29.451Z,10.80
2022-10-07T05:56:58.716Z,10.10
2022-10-07T05:59:46.091Z,10.10
2022-10-07T06:02:33.701Z,9.70
2022-10-07T06:05:02.315Z,9.80
2022-10-07T06:07:31.172Z,9.40
2022-10-07T06:10:18.048Z,10.00
2022-10-07T06:13:04.964Z,10.10
2022-10-07T06:15:35.413Z,9.60
2022-10-07T06:18:04.906Z,11.10
2022-10-07T06:20:33.194Z,10.70
2022-10-07T06:23:01.614Z,10.50
2022-10-07T06:25:30.151Z,11.20
2022-10-07T06:27:59.079Z,10.80
2022-10-07T06:30:29.598Z,9.80
2022-10-07T06:32:58.433Z,11.00
2022-10-07T06:35:26.819Z,11.00
2022-10-07T06:37:55.065Z,10.80
2022-10-07T06:40:23.477Z,10.90
2022-10-07T06:42:54.119Z,10.70
2022-10-07T06:45:22.252Z,10.60
2022-10-07T06:47:53.396Z,8.70
2022-10-07T06:50:22.779Z,7.90
2022-10-07T06:52:51.614Z,9.20
2022-10-07T06:55:19.797Z,9.30
2022-10-07T06:57:48.488Z,10.30
2022-10-07T07:02:47.680Z,11.30
2022-10-07T07:05:16.470Z,11.30
2022-10-07T07:07:46.181Z,12.30
2022-10-07T07:10:15.162Z,11.60
2022-10-07T07:12:46.369Z,12.90
2022-10-07T07:15:14.896Z,14.80
2022-10-07T07:17:43.420Z,14.50
2022-10-07T07:20:13.483Z,15.20
2022-10-07T07:22:42.193Z,16.90
2022-10-07T07:25:11.235Z,14.80
2022-10-07T07:27:39.563Z,14.10
2022-10-07T07:30:08.887Z,11.90
2022-10-07T07:32:38.636Z,13.00
2022-10-07T07:35:07.767Z,11.40
2022-10-07T07:37:36.993Z,10.30
2022-10-07T07:40:05.656Z,9.00
2022-10-07T07:42:35.137Z,8.30
2022-10-07T07:45:03.867Z,8.50
2022-10-07T07:47:33.619Z,7.90
2022-10-07T07:50:05.341Z,8.00
2022-10-07T07:52:34.362Z,8.20
2022-10-07T07:55:05.346Z,9.70
2022-10-07T07:57:38.081Z,8.40
2022-10-07T08:00:09.004Z,7.60
2022-10-07T08:02:45.714Z,7.80
2022-10-07T08:05:22.866Z,8.10
2022-10-07T08:07:54.444Z,6.70
2022-10-07T08:10:22.920Z,6.70
2022-10-07T08:12:51.397Z,6.60
2022-10-07T08:15:19.826Z,6.20
2022-10-07T08:17:48.322Z,5.60
2022-10-07T08:20:16.852Z,5.50
2022-10-07T08:22:46.131Z,5.30
2022-10-07T08:25:16.353Z,5.00
2022-10-07T08:30:14.747Z,4.30
2022-10-07T08:32:43.361Z,4.40
2022-10-07T08:35:14.170Z,4.10
2022-10-07T08:37:42.662Z,5.10
2022-10-07T08:40:16.285Z,5.30
2022-10-07T08:42:49.544Z,6.20
2022-10-07T08:45:31.963Z,4.50
2022-10-07T08:48:05.909Z,4.80
2022-10-07T08:50:56.904Z,4.20
2022-10-07T08:53:31.774Z,4.90
2022-10-07T08:56:19.334Z,6.60
2022-10-07T08:59:21.835Z,6.70
2022-10-07T09:02:18.498Z,4.80
2022-10-07T09:05:26.953Z,6.10
2022-10-07T09:08:02.512Z,5.10
2022-10-07T09:10:33.878Z,4.50
2022-10-07T09:13:14.200Z,4.90
2022-10-07T09:15:57.744Z,9.20
2022-10-07T09:18:42.434Z,6.40
2022-10-07T09:21:20.161Z,5.00
2022-10-07T09:23:57.026Z,6.10
2022-10-07T09:26:27.548Z,6.00
2022-10-07T09:28:59.079Z,6.70
2022-10-07T09:33:57.276Z,6.20
2022-10-07T09:36:26.386Z,6.20
2022-10-07T09:38:54.620Z,5.80
2022-10-07T09:41:38.682Z,5.10
2022-10-07T09:44:16.307Z,5.10
2022-10-07T09:46:53.103Z,4.90
2022-10-07T09:49:43.624Z,4.40
2022-10-07T09:55:37.962Z,4.80
2022-10-07T10:00:52.624Z,4.70
2022-10-07T10:03:32.723Z,5.00
2022-10-07T10:06:07.540Z,6.30
2022-10-07T10:08:39.192Z,7.00
2022-10-07T10:11:26.018Z,6.20
2022-10-07T10:13:54.718Z,5.70
2022-10-07T10:16:29.055Z,6.30
2022-10-07T10:19:02.867Z,5.80
2022-10-07T10:21:40.833Z,6.40
2022-10-07T10:24:16.011Z,5.90
2022-10-07T10:27:03.992Z,6.30
2022-10-07T10:30:03.238Z,5.20
2022-10-07T10:32:41.083Z,6.00
2022-10-07T10:35:24.523Z,5.60
2022-10-07T10:37:58.202Z,5.60
2022-10-07T10:40:44.116Z,5.50
2022-10-07T10:43:24.850Z,4.60
2022-10-07T10:46:09.616Z,4.70
2022-10-07T10:48:53.944Z,5.40
2022-10-07T10:51:28.396Z,4.60
2022-10-07T10:54:18.459Z,5.20
2022-10-07T10:57:12.359Z,4.00
2022-10-07T11:00:11.304Z,4.40
2022-10-07T11:02:47.837Z,3.60
2022-10-07T11:05:24.217Z,4.00
2022-10-07T11:08:17.189Z,4.40
2022-10-07T11:11:08.794Z,4.40
2022-10-07T11:14:15.276Z,4.50
2022-10-07T11:17:05.473Z,3.90
2022-10-07T11:19:57.862Z,4.30
2022-10-07T11:22:34.634Z,3.90
2022-10-07T11:25:17.598Z,3.90
2022-10-07T11:27:50.274Z,3.60
2022-10-07T11:30:22.268Z,3.60
2022-10-07T11:33:04.967Z,3.80
2022-10-07T11:35:37.676Z,3.40
2022-10-07T11:38:14.829Z,3.50
2022-10-07T11:40:45.871Z,3.10
2022-10-07T11:43:48.216Z,3.40
2022-10-07T11:46:18.451Z,2.40
2022-10-07T11:49:09.207Z,2.90
2022-10-07T11:52:01.957Z,2.50
2022-10-07T11:54:43.484Z,3.00
2022-10-07T11:57:32.172Z,2.80
2022-10-07T12:00:02.424Z,3.00
2022-10-07T12:05:35.832Z,2.70
2022-10-07T12:11:19.002Z,2.40
2022-10-07T12:13:52.798Z,2.40
2022-10-07T12:16:24.046Z,2.60
2022-10-07T12:19:07.691Z,2.20
2022-10-07T12:22:02.966Z,2.50
2022-10-07T12:24:36.790Z,2.10
2022-10-07T12:27:14.618Z,2.70
2022-10-07T12:29:53.091Z,2.30
2022-10-07T12:32:40.755Z,2.50
2022-10-07T12:35:34.805Z,2.90
2022-10-07T12:38:24.780Z,2.40
2022-10-07T12:41:03.999Z,2.30
2022-10-07T12:43:45.387Z,2.90
2022-10-07T12:46:18.818Z,2.60
2022-10-07T12:49:00.803Z,2.40
2022-10-07T12:51:40.443Z,2.00
2022-10-07T12:54:33.747Z,1.90
2022-10-07T12:57:03.110Z,2.10
2022-10-07T12:59:50.272Z,2.10
2022-10-07T13:02:37.069Z,2.50
2022-10-07T13:05:36.075Z,2.50
2022-10-07T13:08:42.041Z,2.20
2022-10-07T13:11:45.522Z,2.20
2022-10-07T13:14:38.756Z,2.70
2022-10-07T13:17:35.869Z,2.80
2022-10-07T13:20:22.300Z,2.50
2022-10-07T13:22:52.445Z,3.00
2022-10-07T13:25:21.585Z,2.60
2022-10-07T13:28:00.339Z,2.70
2022-10-07T13:33:20.923Z,6.10
2022-10-07T13:35:50.458Z,3.50
2022-10-07T13:38:27.074Z,2.70
2022-10-07T13:41:30.479Z,3.60
2022-10-07T13:44:04.712Z,4.20
2022-10-07T13:46:36.323Z,4.40
2022-10-07T13:49:05.550Z,5.40
2022-10-07T13:51:41.186Z,4.30
2022-10-07T13:54:22.972Z,3.90
2022-10-07T13:56:51.867Z,3.50
2022-10-07T13:59:23.298Z,4.30
2022-10-07T14:01:58.291Z,4.60
2022-10-07T14:04:28.907Z,4.30
2022-10-07T14:06:57.905Z,3.50
2022-10-07T14:09:32.331Z,3.90
2022-10-07T14:12:09.725Z,3.50
2022-10-07T14:14:45.093Z,4.20
2022-10-07T14:17:31.345Z,4.40
2022-10-07T14:20:05.981Z,3.70
2022-10-07T14:22:41.268Z,3.40
2022-10-07T14:25:27.799Z,2.80
2022-10-07T14:28:16.279Z,2.70
2022-10-07T14:31:06.429Z,2.60
2022-10-07T14:34:31.247Z,2.40
2022-10-07T14:37:01.583Z,2.70
2022-10-07T14:39:46.961Z,2.40
2022-10-07T14:42:22.012Z,2.30
2022-10-07T14:48:07.913Z,2.60
2022-10-07T14:50:36.224Z,2.40
2022-10-07T14:53:04.473Z,2.70
2022-10-07T14:55:33.617Z,2.80
2022-10-07T14:58:02.770Z,2.80
2022-10-07T15:00:35.989Z,2.80
2022-10-07T15:03:07.015Z,3.20
2022-10-07T15:05:35.189Z,3.20
2022-10-07T15:08:04.186Z,3.30
2022-10-07T15:10:33.470Z,2.90
2022-10-07T15:13:04.187Z,3.30
2022-10-07T15:15:33.043Z,3.10
2022-10-07T15:18:01.196Z,3.50
2022-10-07T15:20:29.335Z,4.80
2022-10-07T15:22:57.621Z,3.50
2022-10-07T15:25:25.970Z,4.10
2022-10-07T15:27:54.266Z,3.50
2022-10-07T15:30:22.348Z,4.50
2022-10-07T15:32:50.550Z,3.30
2022-10-07T15:35:18.756Z,3.50
2022-10-07T15:37:49.339Z,3.50
2022-10-07T15:40:19.970Z,3.50
2022-10-07T15:42:48.748Z,3.00
2022-10-07T15:45:17.275Z,3.30
2022-10-07T15:47:45.798Z,3.50
2022-10-07T15:50:13.960Z,2.70
2022-10-07T15:52:42.126Z,3.20
2022-10-07T15:55:10.569Z,3.70
2022-10-07T15:57:39.104Z,3.00
2022-10-07T16:00:07.995Z,4.10
2022-10-07T16:02:42.311Z,3.70
2022-10-07T16:05:12.836Z,3.60
2022-10-07T16:07:41.132Z,3.40
2022-10-07T16:10:12.968Z,3.40
2022-10-07T16:12:41.654Z,3.60
2022-10-07T16:15:10.385Z,4.10
2022-10-07T16:17:38.596Z,4.50
2022-10-07T16:20:11.204Z,6.30
2022-10-07T16:22:39.900Z,6.60
2022-10-07T16:25:08.649Z,7.40
2022-10-07T16:27:55.343Z,8.20
2022-10-07T16:30:41.848Z,7.10
2022-10-07T16:33:10.167Z,6.50
2022-10-07T16:35:38.362Z,5.20
2022-10-07T16:38:07.670Z,5.40
2022-10-07T16:40:35.790Z,5.20
2022-10-07T16:43:04.106Z,5.00
2022-10-07T16:45:33.814Z,5.50
2022-10-07T16:48:02.310Z,5.10
2022-10-07T16:50:33.340Z,5.90
2022-10-07T16:53:01.519Z,6.50
2022-10-07T16:55:31.630Z,6.50
2022-10-07T16:57:59.955Z,6.00
2022-10-07T17:00:29.077Z,6.20
2022-10-07T17:02:57.224Z,6.10
2022-10-07T17:05:25.362Z,6.00
2022-10-07T17:07:53.543Z,6.00
2022-10-07T17:10:21.697Z,5.40
2022-10-07T17:12:49.988Z,6.50
2022-10-07T17:15:18.248Z,6.40
2022-10-07T17:17:47.176Z,6.60
2022-10-07T17:20:15.683Z,6.00
2022-10-07T17:22:46.218Z,6.10
2022-10-07T17:25:14.629Z,6.60
2022-10-07T17:27:42.869Z,6.20
2022-10-07T17:30:11.951Z,6.10
2022-10-07T17:32:40.139Z,6.30
2022-10-07T17:35:08.769Z,6.30
2022-10-07T17:37:37.093Z,6.30
2022-10-07T17:40:05.862Z,6.20
2022-10-07T17:42:34.042Z,6.10
2022-10-07T17:45:04.927Z,5.80
2022-10-07T17:47:33.803Z,6.00
2022-10-07T17:50:01.997Z,5.70
2022-10-07T17:52:32.406Z,6.00
2022-10-07T17:57:28.626Z,5.40
2022-10-07T17:59:56.641Z,5.10
2022-10-07T18:02:24.908Z,5.20
2022-10-07T18:04:53.142Z,5.00
2022-10-07T18:07:23.080Z,5.30
2022-10-07T18:09:51.713Z,5.40
2022-10-07T18:12:38.605Z,5.50
2022-10-07T18:15:23.336Z,5.50
2022-10-07T18:17:52.243Z,5.60
2022-10-07T18:20:22.919Z,6.30
2022-10-07T18:22:56.171Z,6.20
2022-10-07T18:25:25.364Z,6.40
2022-10-07T18:27:53.574Z,6.70
2022-10-07T18:30:21.904Z,7.00
2022-10-07T18:32:50.153Z,6.50
2022-10-07T18:35:18.814Z,5.40
2022-10-07T18:37:49.512Z,4.80
2022-10-07T18:40:19.114Z,4.70
2022-10-07T18:42:47.495Z,4.60
2022-10-07T18:45:15.747Z,4.50
2022-10-07T18:47:44.245Z,4.60
2022-10-07T18:50:12.701Z,4.70
2022-10-07T18:52:41.031Z,4.20
2022-10-07T18:55:09.916Z,4.70
2022-10-07T18:57:38.104Z,4.40
2022-10-07T19:00:07.161Z,5.10
2022-10-07T19:02:35.617Z,4.90
2022-10-07T19:05:05.983Z,4.90
2022-10-07T19:10:04.690Z,4.40
2022-10-07T19:12:51.461Z,4.40
2022-10-07T19:15:19.933Z,4.60
2022-10-07T19:17:48.756Z,4.30
2022-10-07T19:20:18.272Z,3.90
2022-10-07T19:22:46.489Z,4.30
2022-10-07T19:25:33.414Z,4.50
2022-10-07T19:28:02.683Z,3.80
2022-10-07T19:30:30.908Z,3.80
2022-10-07T19:32:59.204Z,4.20
2022-10-07T19:35:30.319Z,3.80
2022-10-07T19:37:59.909Z,4.10
2022-10-07T19:40:28.207Z,4.40
2022-10-07T19:42:56.559Z,4.40
2022-10-07T19:45:24.815Z,4.10
2022-10-07T19:47:53.806Z,4.20
2022-10-07T19:50:27.608Z,4.40
2022-10-07T19:52:57.215Z,3.70
2022-10-07T19:55:27.691Z,4.40
2022-10-07T19:57:59.964Z,4.20
2022-10-07T20:00:29.556Z,3.90
2022-10-07T20:02:58.011Z,4.00
2022-10-07T20:05:31.667Z,4.20
2022-10-07T20:07:59.914Z,4.20
2022-10-07T20:10:28.417Z,4.10
2022-10-07T20:12:56.829Z,6.10
2022-10-07T20:15:25.029Z,7.80
2022-10-07T20:17:54.866Z,8.10
2022-10-07T20:20:23.705Z,8.20
2022-10-07T20:22:55.218Z,7.60
2022-10-07T20:25:24.593Z,7.70
2022-10-07T20:27:52.668Z,7.50
2022-10-07T20:30:21.404Z,7.70
2022-10-07T20:32:49.700Z,8.20
2022-10-07T20:35:18.050Z,8.40
2022-10-07T20:37:46.207Z,8.40
2022-10-07T20:40:41.563Z,7.90
2022-10-07T20:43:10.818Z,8.00
2022-10-07T20:45:56.399Z,8.00
2022-10-07T20:48:28.166Z,6.80
2022-10-07T20:50:56.872Z,6.50
2022-10-07T20:53:25.153Z,8.30
2022-10-07T20:55:53.339Z,7.60
2022-10-07T20:58:21.605Z,7.40
2022-10-07T21:00:49.736Z,4.90
2022-10-07T21:03:18.376Z,5.10
2022-10-07T21:05:46.692Z,9.40
2022-10-07T21:08:14.806Z,8.10
2022-10-07T21:10:42.988Z,6.90
2022-10-07T21:13:15.206Z,5.90
2022-10-07T21:15:43.403Z,7.20
2022-10-07T21:18:11.751Z,7.40
2022-10-07T21:20:56.523Z,7.90
2022-10-07T21:23:28.313Z,8.20
2022-10-07T21:26:02.672Z,9.00
2022-10-07T21:28:36.787Z,11.30
2022-10-07T21:31:10.442Z,13.60
2022-10-07T21:33:40.000Z,14.10
2022-10-07T21:36:13.049Z,13.10
2022-10-07T21:38:41.287Z,11.60
2022-10-07T21:41:18.847Z,11.60
2022-10-07T21:43:55.494Z,12.20
2022-10-07T21:46:25.906Z,12.20
2022-10-07T21:51:26.724Z,11.80
2022-10-07T21:53:59.233Z,12.30
2022-10-07T21:56:28.714Z,15.80
2022-10-07T21:58:59.692Z,16.10
2022-10-07T22:01:28.728Z,16.00
2022-10-07T22:03:59.438Z,18.30
2022-10-07T22:06:48.296Z,16.20
2022-10-07T22:09:20.366Z,15.20
2022-10-07T22:11:49.187Z,15.90
2022-10-07T22:14:18.942Z,16.90
2022-10-07T22:16:49.991Z,17.40
2022-10-07T22:19:18.157Z,17.50
2022-10-07T22:21:46.416Z,25.50
2022-10-07T22:24:15.029Z,27.40
2022-10-07T22:26:46.539Z,30.50
2022-10-07T22:29:17.366Z,31.20
2022-10-07T22:31:47.253Z,27.50
2022-10-07T22:34:33.939Z,27.00
2022-10-07T22:37:02.525Z,21.40
2022-10-07T22:39:31.491Z,18.70
2022-10-07T22:42:01.183Z,16.50
2022-10-07T22:44:29.609Z,15.30
2022-10-07T22:47:02.395Z,14.30
2022-10-07T22:49:30.674Z,13.70
2022-10-07T22:52:00.310Z,14.30
2022-10-07T22:54:30.293Z,13.80
2022-10-07T22:56:58.533Z,12.20
2022-10-07T22:59:26.744Z,12.20
2022-10-07T23:01:54.986Z,12.40
2022-10-07T23:04:23.124Z,11.70
2022-10-07T23:06:51.271Z,12.30
2022-10-07T23:09:21.105Z,13.00
2022-10-07T23:11:49.256Z,13.30
2022-10-07T23:14:18.155Z,13.50
2022-10-07T23:16:46.334Z,13.90
2022-10-07T23:19:14.501Z,15.90
2022-10-07T23:21:42.827Z,17.80
2022-10-07T23:24:11.518Z,13.50
2022-10-07T23:26:43.416Z,12.50
2022-10-07T23:29:12.245Z,12.70
2022-10-07T23:31:40.552Z,11.60
2022-10-07T23:34:11.171Z,12.20
2022-10-07T23:36:40.938Z,10.50
2022-10-07T23:39:11.144Z,10.90
2022-10-07T23:41:39.339Z,10.80
2022-10-07T23:44:31.539Z,10.10
2022-10-07T23:46:59.806Z,10.70
2022-10-07T23:49:28.005Z,11.00
2022-10-07T23:51:56.302Z,10.90
2022-10-07T23:54:24.607Z,10.50
2022-10-07T23:56:52.894Z,10.40
2022-10-07T23:59:21.083Z,11.00
